Rockwell, NC (28138)

20:38 EDT le 22 octobre 2014 (GMT -0400)
Granite Quarry | Change Station
CLOSE
Current Station
Stations météorologiques personnelles
Location: Salisbury, NC
Altitude: 771 ft
Stations météo à proximité

Alt. 771 ft 35.61 °N, 80.46 °W | Updated 3 seconds ago

Ciel dégagé
Ciel dégagé
56.3 ° F
Paraît 56.3 ° F
N
0.0
Vent Variable Vent de Nord
Gusts 0.0 mph

Aujourd'hui
Haut(e) -- | Bas -- ° F
--% Risque de précip.
Hier
Haut(e) -- | Bas -- ° F
Precip. -- pouce
7:34 AM 6:37 PM
Lune descendante, 1% visible
Pression 30.07 pouce
Visibilité 10.0 Miles terrestres
Nuages Ciel dégagé
Point de rosée 41 ° F
Humidité 57%
Précipitations 0.00 pouce
Profondeur de la couche neigeuse Non disponible.
UV 0 sur 12
Pollen 3.10 sur 12
Ozone Bon
PM2.5 Bon
Flu Activity Sporadic
METAR KRUQ 230015Z AUTO 33008G14KT 10SM CLR 11/04 A3007 RMK AO2 T01110038

More Conditions Fewer Conditions

Pression 30.07 pouce
Visibilité 10.0 Miles terrestres
Nuages Ciel dégagé
Point de rosée 41 ° F
Humidité 57%
Précipitations 0.00 pouce
Profondeur de la couche neigeuse Non disponible.
UV 0 sur 12
Pollen 3.10 sur 12
Ozone Bon
PM2.5 Bon
Flu Activity Sporadic
METAR KRUQ 230015Z AUTO 33008G14KT 10SM CLR 11/04 A3007 RMK AO2 T01110038

More Conditions Fewer Conditions

10-Day Weather Forecast

Almanac

Astronomie

Oct. 22, 2014 Lever Coucher
Temps réel 07:34 EDT 18:37 EDT
Crépuscule civil 07:08 EDT 19:03 EDT
Crépuscule nautique 06:38 EDT 19:33 EDT
Crépuscule astronomique 06:09 EDT 20:02 EDT
Lune 06:16 EDT (10/22) 18:01 EDT (10/22)
Durée de lumière visible 11h 55m
Longueur du jour
11h 03m
Tomorrow will be 2m 5s shorter.
Lune descendante, 1% of the Moon is Illuminated
Aujourd'hui
Lune descendante
Oct 23
Nouveau
Oct 30
Premier quartier
Nov 6
Pleine lune
Nov 14
Dernier quartier

Extrêmes aujourd'hui

State Highs State Lows

Community

WunderPhotos

Upload Photos

1,764,095 Photos téléchargées !

WunderBlogs® & News

Nearby

Qualité de l'air

  Qualité de l'air Indice de la qualité de l'air Polluant
Hier Bon
OZONE
Hier Bon
PM2.5
Actuel Bon
PM2.5
Actuel Bon
OZONE
mercredi Bon
OZONE
mercredi Bon
PM2.5
jeudi Bon
PM2.5
jeudi Bon
OZONE
vendredi Bon
OZONE
vendredi Bon
PM2.5
samedi Bon
OZONE
samedi Bon
PM2.5

Épaisseur de neige

Station Depth Altitude
Pas de nouvelles chutes de neige

Activité sismique

Ville Distance Mag. Time & Date
No recent earthquake activity has been reported nearby.
Minimum magnitude displayed is 2.5.

Températures des eaux côtières

Lieu Température
Aucun rapport de station

Stations météo à proximité